sensor_id;sensor_type;location;lat;lon;timestamp;P1;durP1;ratioP1;P2;durP2;ratioP2
28762;SDS011;15918;51.270;6.522;2024-01-16T00:00:50;11.05;;;6.13;;
28762;SDS011;15918;51.270;6.522;2024-01-16T00:03:15;8.43;;;6.03;;
28762;SDS011;15918;51.270;6.522;2024-01-16T00:05:41;7.25;;;6.47;;
28762;SDS011;15918;51.270;6.522;2024-01-16T00:08:07;9.23;;;7.18;;
28762;SDS011;15918;51.270;6.522;2024-01-16T00:10:33;9.43;;;8.30;;
28762;SDS011;15918;51.270;6.522;2024-01-16T00:12:58;15.20;;;7.47;;
28762;SDS011;15918;51.270;6.522;2024-01-16T00:15:24;11.55;;;9.07;;
28762;SDS011;15918;51.270;6.522;2024-01-16T00:17:50;13.75;;;9.73;;
28762;SDS011;15918;51.270;6.522;2024-01-16T00:20:16;13.50;;;9.88;;
28762;SDS011;15918;51.270;6.522;2024-01-16T00:22:42;13.05;;;9.90;;
28762;SDS011;15918;51.270;6.522;2024-01-16T00:25:07;11.65;;;10.35;;
28762;SDS011;15918;51.270;6.522;2024-01-16T00:27:33;11.93;;;10.32;;
28762;SDS011;15918;51.270;6.522;2024-01-16T00:29:59;11.73;;;10.52;;
28762;SDS011;15918;51.270;6.522;2024-01-16T00:32:24;14.38;;;10.13;;
28762;SDS011;15918;51.270;6.522;2024-01-16T00:34:50;12.60;;;11.02;;
28762;SDS011;15918;51.270;6.522;2024-01-16T00:37:16;11.95;;;10.60;;
28762;SDS011;15918;51.270;6.522;2024-01-16T00:39:42;13.77;;;10.85;;
28762;SDS011;15918;51.270;6.522;2024-01-16T00:42:07;12.40;;;10.60;;
28762;SDS011;15918;51.270;6.522;2024-01-16T00:44:33;12.02;;;10.50;;
28762;SDS011;15918;51.270;6.522;2024-01-16T00:46:59;12.10;;;10.80;;
28762;SDS011;15918;51.270;6.522;2024-01-16T00:49:26;13.05;;;11.73;;
28762;SDS011;15918;51.270;6.522;2024-01-16T00:51:53;13.60;;;12.02;;
28762;SDS011;15918;51.270;6.522;2024-01-16T00:54:18;15.73;;;13.18;;
28762;SDS011;15918;51.270;6.522;2024-01-16T00:56:44;14.98;;;13.40;;
28762;SDS011;15918;51.270;6.522;2024-01-16T00:59:09;17.67;;;14.35;;
28762;SDS011;15918;51.270;6.522;2024-01-16T01:01:37;20.17;;;15.70;;
28762;SDS011;15918;51.270;6.522;2024-01-16T01:04:03;19.20;;;16.15;;
28762;SDS011;15918;51.270;6.522;2024-01-16T01:06:29;18.42;;;16.27;;
28762;SDS011;15918;51.270;6.522;2024-01-16T01:08:54;18.33;;;16.55;;
28762;SDS011;15918;51.270;6.522;2024-01-16T01:11:20;18.30;;;16.50;;
28762;SDS011;15918;51.270;6.522;2024-01-16T01:13:45;19.67;;;17.67;;
28762;SDS011;15918;51.270;6.522;2024-01-16T01:16:11;20.73;;;18.55;;
28762;SDS011;15918;51.270;6.522;2024-01-16T01:18:36;20.88;;;18.70;;
28762;SDS011;15918;51.270;6.522;2024-01-16T01:21:02;18.95;;;17.05;;
28762;SDS011;15918;51.270;6.522;2024-01-16T01:23:28;19.83;;;16.88;;
28762;SDS011;15918;51.270;6.522;2024-01-16T01:25:53;18.13;;;16.10;;
28762;SDS011;15918;51.270;6.522;2024-01-16T01:28:19;19.05;;;16.38;;
28762;SDS011;15918;51.270;6.522;2024-01-16T01:30:45;17.15;;;15.35;;
28762;SDS011;15918;51.270;6.522;2024-01-16T01:33:10;15.68;;;14.10;;
28762;SDS011;15918;51.270;6.522;2024-01-16T01:35:36;16.15;;;14.45;;
28762;SDS011;15918;51.270;6.522;2024-01-16T01:38:02;16.77;;;14.55;;
28762;SDS011;15918;51.270;6.522;2024-01-16T01:40:28;15.50;;;13.95;;
28762;SDS011;15918;51.270;6.522;2024-01-16T01:42:54;16.38;;;13.80;;
28762;SDS011;15918;51.270;6.522;2024-01-16T01:45:19;16.77;;;12.90;;
28762;SDS011;15918;51.270;6.522;2024-01-16T01:47:46;15.93;;;14.30;;
28762;SDS011;15918;51.270;6.522;2024-01-16T01:50:13;14.82;;;13.25;;
28762;SDS011;15918;51.270;6.522;2024-01-16T01:52:39;15.77;;;14.02;;
28762;SDS011;15918;51.270;6.522;2024-01-16T01:55:06;15.43;;;13.77;;
28762;SDS011;15918;51.270;6.522;2024-01-16T01:57:35;16.13;;;14.10;;
28762;SDS011;15918;51.270;6.522;2024-01-16T02:00:01;18.13;;;15.23;;
28762;SDS011;15918;51.270;6.522;2024-01-16T02:02:28;16.08;;;14.30;;
28762;SDS011;15918;51.270;6.522;2024-01-16T02:04:54;20.45;;;15.98;;
28762;SDS011;15918;51.270;6.522;2024-01-16T02:07:20;16.92;;;15.18;;
28762;SDS011;15918;51.270;6.522;2024-01-16T02:09:46;18.55;;;16.60;;
28762;SDS011;15918;51.270;6.522;2024-01-16T02:12:12;18.50;;;16.60;;
28762;SDS011;15918;51.270;6.522;2024-01-16T02:14:38;20.00;;;17.90;;
28762;SDS011;15918;51.270;6.522;2024-01-16T02:17:03;19.83;;;17.77;;
28762;SDS011;15918;51.270;6.522;2024-01-16T02:19:29;20.60;;;18.45;;
28762;SDS011;15918;51.270;6.522;2024-01-16T02:21:57;20.17;;;17.58;;
28762;SDS011;15918;51.270;6.522;2024-01-16T02:24:25;19.77;;;17.77;;
28762;SDS011;15918;51.270;6.522;2024-01-16T02:26:51;22.95;;;19.33;;
28762;SDS011;15918;51.270;6.522;2024-01-16T02:29:18;23.38;;;17.60;;
28762;SDS011;15918;51.270;6.522;2024-01-16T02:31:44;19.02;;;17.00;;
28762;SDS011;15918;51.270;6.522;2024-01-16T02:34:10;21.77;;;18.80;;
28762;SDS011;15918;51.270;6.522;2024-01-16T02:36:36;23.27;;;18.20;;
28762;SDS011;15918;51.270;6.522;2024-01-16T02:39:01;22.83;;;18.90;;
28762;SDS011;15918;51.270;6.522;2024-01-16T02:41:27;23.23;;;20.65;;
28762;SDS011;15918;51.270;6.522;2024-01-16T02:43:53;22.85;;;18.73;;
28762;SDS011;15918;51.270;6.522;2024-01-16T02:46:19;23.77;;;17.92;;
28762;SDS011;15918;51.270;6.522;2024-01-16T02:48:44;19.55;;;17.33;;
28762;SDS011;15918;51.270;6.522;2024-01-16T02:51:10;26.85;;;17.95;;
28762;SDS011;15918;51.270;6.522;2024-01-16T02:53:36;20.85;;;18.23;;
28762;SDS011;15918;51.270;6.522;2024-01-16T02:56:01;24.65;;;18.00;;
28762;SDS011;15918;51.270;6.522;2024-01-16T02:58:27;20.30;;;17.52;;
28762;SDS011;15918;51.270;6.522;2024-01-16T03:00:54;23.10;;;19.10;;
28762;SDS011;15918;51.270;6.522;2024-01-16T03:03:20;23.30;;;19.10;;
28762;SDS011;15918;51.270;6.522;2024-01-16T03:05:46;22.05;;;18.10;;
28762;SDS011;15918;51.270;6.522;2024-01-16T03:08:12;22.88;;;19.02;;
28762;SDS011;15918;51.270;6.522;2024-01-16T03:10:38;22.27;;;18.52;;
28762;SDS011;15918;51.270;6.522;2024-01-16T03:13:04;22.27;;;17.98;;
28762;SDS011;15918;51.270;6.522;2024-01-16T03:15:30;21.10;;;16.88;;
28762;SDS011;15918;51.270;6.522;2024-01-16T03:17:56;19.52;;;17.27;;
28762;SDS011;15918;51.270;6.522;2024-01-16T03:20:22;17.80;;;16.10;;
28762;SDS011;15918;51.270;6.522;2024-01-16T03:22:48;17.77;;;15.63;;
28762;SDS011;15918;51.270;6.522;2024-01-16T03:25:15;18.58;;;16.08;;
28762;SDS011;15918;51.270;6.522;2024-01-16T03:27:41;21.02;;;15.75;;
28762;SDS011;15918;51.270;6.522;2024-01-16T03:30:07;18.73;;;14.23;;
28762;SDS011;15918;51.270;6.522;2024-01-16T03:32:34;18.38;;;14.00;;
28762;SDS011;15918;51.270;6.522;2024-01-16T03:35:03;19.75;;;13.38;;
28762;SDS011;15918;51.270;6.522;2024-01-16T03:37:29;17.55;;;12.57;;
28762;SDS011;15918;51.270;6.522;2024-01-16T03:39:55;16.23;;;12.60;;
28762;SDS011;15918;51.270;6.522;2024-01-16T03:42:22;14.02;;;12.23;;
28762;SDS011;15918;51.270;6.522;2024-01-16T03:44:47;14.93;;;11.35;;
28762;SDS011;15918;51.270;6.522;2024-01-16T03:47:14;14.00;;;11.13;;
28762;SDS011;15918;51.270;6.522;2024-01-16T03:49:40;11.30;;;10.10;;
28762;SDS011;15918;51.270;6.522;2024-01-16T03:52:05;13.13;;;10.40;;
28762;SDS011;15918;51.270;6.522;2024-01-16T03:54:31;10.02;;;9.02;;
28762;SDS011;15918;51.270;6.522;2024-01-16T03:56:57;11.48;;;10.18;;
28762;SDS011;15918;51.270;6.522;2024-01-16T03:59:22;12.43;;;8.98;;
28762;SDS011;15918;51.270;6.522;2024-01-16T04:01:48;12.80;;;9.18;;
28762;SDS011;15918;51.270;6.522;2024-01-16T04:04:14;11.48;;;8.60;;
28762;SDS011;15918;51.270;6.522;2024-01-16T04:06:40;10.07;;;7.82;;
28762;SDS011;15918;51.270;6.522;2024-01-16T04:09:07;12.45;;;8.15;;
28762;SDS011;15918;51.270;6.522;2024-01-16T04:11:33;10.55;;;7.70;;
28762;SDS011;15918;51.270;6.522;2024-01-16T04:13:59;11.23;;;7.68;;
28762;SDS011;15918;51.270;6.522;2024-01-16T04:16:24;9.52;;;7.63;;
28762;SDS011;15918;51.270;6.522;2024-01-16T04:18:50;8.75;;;7.47;;
28762;SDS011;15918;51.270;6.522;2024-01-16T04:21:16;8.35;;;7.55;;
28762;SDS011;15918;51.270;6.522;2024-01-16T04:23:41;14.38;;;9.00;;
28762;SDS011;15918;51.270;6.522;2024-01-16T04:26:07;11.10;;;8.73;;
28762;SDS011;15918;51.270;6.522;2024-01-16T04:28:33;11.55;;;9.60;;
28762;SDS011;15918;51.270;6.522;2024-01-16T04:31:00;11.73;;;10.50;;
28762;SDS011;15918;51.270;6.522;2024-01-16T04:33:26;14.55;;;11.90;;
28762;SDS011;15918;51.270;6.522;2024-01-16T04:35:52;15.13;;;13.55;;
28762;SDS011;15918;51.270;6.522;2024-01-16T04:38:17;18.65;;;15.73;;
28762;SDS011;15918;51.270;6.522;2024-01-16T04:40:43;20.05;;;16.30;;
28762;SDS011;15918;51.270;6.522;2024-01-16T04:43:09;19.98;;;16.20;;
28762;SDS011;15918;51.270;6.522;2024-01-16T04:45:34;22.17;;;17.52;;
28762;SDS011;15918;51.270;6.522;2024-01-16T04:48:00;20.90;;;18.15;;
28762;SDS011;15918;51.270;6.522;2024-01-16T04:50:26;19.20;;;17.05;;
28762;SDS011;15918;51.270;6.522;2024-01-16T04:52:57;23.77;;;19.45;;
28762;SDS011;15918;51.270;6.522;2024-01-16T04:55:25;21.45;;;17.40;;
28762;SDS011;15918;51.270;6.522;2024-01-16T04:57:54;21.27;;;19.00;;
28762;SDS011;15918;51.270;6.522;2024-01-16T05:00:20;22.60;;;18.30;;
28762;SDS011;15918;51.270;6.522;2024-01-16T05:02:46;21.10;;;18.90;;
28762;SDS011;15918;51.270;6.522;2024-01-16T05:05:12;20.85;;;18.45;;
28762;SDS011;15918;51.270;6.522;2024-01-16T05:07:39;21.23;;;17.35;;
28762;SDS011;15918;51.270;6.522;2024-01-16T05:10:05;20.65;;;16.17;;
28762;SDS011;15918;51.270;6.522;2024-01-16T05:12:32;21.52;;;17.15;;
28762;SDS011;15918;51.270;6.522;2024-01-16T05:14:57;20.55;;;16.00;;
28762;SDS011;15918;51.270;6.522;2024-01-16T05:17:23;21.73;;;15.27;;
28762;SDS011;15918;51.270;6.522;2024-01-16T05:19:49;25.63;;;15.77;;
28762;SDS011;15918;51.270;6.522;2024-01-16T05:22:15;20.15;;;14.80;;
28762;SDS011;15918;51.270;6.522;2024-01-16T05:24:41;17.08;;;14.60;;
28762;SDS011;15918;51.270;6.522;2024-01-16T05:27:06;20.95;;;14.63;;
28762;SDS011;15918;51.270;6.522;2024-01-16T05:29:32;23.55;;;15.20;;
28762;SDS011;15918;51.270;6.522;2024-01-16T05:31:57;24.27;;;14.35;;
28762;SDS011;15918;51.270;6.522;2024-01-16T05:34:23;18.20;;;12.82;;
28762;SDS011;15918;51.270;6.522;2024-01-16T05:36:49;19.70;;;13.20;;
28762;SDS011;15918;51.270;6.522;2024-01-16T05:39:15;19.88;;;14.02;;
28762;SDS011;15918;51.270;6.522;2024-01-16T05:41:42;22.25;;;13.00;;
28762;SDS011;15918;51.270;6.522;2024-01-16T05:44:07;19.60;;;11.50;;
28762;SDS011;15918;51.270;6.522;2024-01-16T05:46:33;19.92;;;12.18;;
28762;SDS011;15918;51.270;6.522;2024-01-16T05:48:59;21.13;;;12.10;;
28762;SDS011;15918;51.270;6.522;2024-01-16T05:51:26;20.50;;;10.68;;
28762;SDS011;15918;51.270;6.522;2024-01-16T05:53:52;16.73;;;11.10;;
28762;SDS011;15918;51.270;6.522;2024-01-16T05:56:18;20.05;;;10.38;;
28762;SDS011;15918;51.270;6.522;2024-01-16T05:58:44;21.55;;;10.25;;
28762;SDS011;15918;51.270;6.522;2024-01-16T06:01:09;18.65;;;10.38;;
28762;SDS011;15918;51.270;6.522;2024-01-16T06:03:38;18.33;;;9.80;;
28762;SDS011;15918;51.270;6.522;2024-01-16T06:06:07;18.67;;;9.98;;
28762;SDS011;15918;51.270;6.522;2024-01-16T06:08:33;18.63;;;9.55;;
28762;SDS011;15918;51.270;6.522;2024-01-16T06:10:59;22.90;;;9.25;;
28762;SDS011;15918;51.270;6.522;2024-01-16T06:13:25;22.95;;;10.02;;
28762;SDS011;15918;51.270;6.522;2024-01-16T06:15:51;19.63;;;9.18;;
28762;SDS011;15918;51.270;6.522;2024-01-16T06:18:16;18.25;;;9.68;;
28762;SDS011;15918;51.270;6.522;2024-01-16T06:20:42;23.55;;;13.55;;
28762;SDS011;15918;51.270;6.522;2024-01-16T06:23:08;28.20;;;15.27;;
28762;SDS011;15918;51.270;6.522;2024-01-16T06:25:33;29.98;;;18.10;;
28762;SDS011;15918;51.270;6.522;2024-01-16T06:27:59;26.90;;;16.15;;
28762;SDS011;15918;51.270;6.522;2024-01-16T06:30:25;27.48;;;14.07;;
28762;SDS011;15918;51.270;6.522;2024-01-16T06:32:50;22.77;;;13.27;;
28762;SDS011;15918;51.270;6.522;2024-01-16T06:35:16;22.27;;;12.20;;
28762;SDS011;15918;51.270;6.522;2024-01-16T06:37:42;19.45;;;10.85;;
28762;SDS011;15918;51.270;6.522;2024-01-16T06:40:08;17.52;;;9.82;;
28762;SDS011;15918;51.270;6.522;2024-01-16T06:42:34;19.23;;;10.27;;
28762;SDS011;15918;51.270;6.522;2024-01-16T06:45:03;18.08;;;9.88;;
28762;SDS011;15918;51.270;6.522;2024-01-16T06:47:29;21.92;;;9.93;;
28762;SDS011;15918;51.270;6.522;2024-01-16T06:49:54;17.67;;;9.25;;
28762;SDS011;15918;51.270;6.522;2024-01-16T06:52:20;18.73;;;10.68;;
28762;SDS011;15918;51.270;6.522;2024-01-16T06:54:46;20.67;;;9.77;;
28762;SDS011;15918;51.270;6.522;2024-01-16T06:57:11;21.50;;;10.77;;
28762;SDS011;15918;51.270;6.522;2024-01-16T06:59:37;25.73;;;11.32;;
28762;SDS011;15918;51.270;6.522;2024-01-16T07:02:05;25.63;;;11.77;;
28762;SDS011;15918;51.270;6.522;2024-01-16T07:04:31;21.25;;;10.60;;
28762;SDS011;15918;51.270;6.522;2024-01-16T07:06:57;23.45;;;9.73;;
28762;SDS011;15918;51.270;6.522;2024-01-16T07:09:24;17.85;;;8.85;;
28762;SDS011;15918;51.270;6.522;2024-01-16T07:11:50;18.63;;;9.43;;
28762;SDS011;15918;51.270;6.522;2024-01-16T07:14:16;19.25;;;9.25;;
28762;SDS011;15918;51.270;6.522;2024-01-16T07:16:41;17.48;;;8.60;;
28762;SDS011;15918;51.270;6.522;2024-01-16T07:19:08;16.48;;;8.25;;
28762;SDS011;15918;51.270;6.522;2024-01-16T07:21:33;16.80;;;8.68;;
28762;SDS011;15918;51.270;6.522;2024-01-16T07:24:00;19.55;;;7.90;;
28762;SDS011;15918;51.270;6.522;2024-01-16T07:26:25;16.88;;;6.85;;
28762;SDS011;15918;51.270;6.522;2024-01-16T07:28:51;24.33;;;9.48;;
28762;SDS011;15918;51.270;6.522;2024-01-16T07:31:16;20.10;;;11.07;;
28762;SDS011;15918;51.270;6.522;2024-01-16T07:33:42;22.33;;;12.50;;
28762;SDS011;15918;51.270;6.522;2024-01-16T07:36:08;18.90;;;10.55;;
28762;SDS011;15918;51.270;6.522;2024-01-16T07:38:35;20.92;;;10.80;;
28762;SDS011;15918;51.270;6.522;2024-01-16T07:41:03;18.50;;;9.48;;
28762;SDS011;15918;51.270;6.522;2024-01-16T07:43:30;20.67;;;9.40;;
28762;SDS011;15918;51.270;6.522;2024-01-16T07:45:55;12.80;;;7.80;;
28762;SDS011;15918;51.270;6.522;2024-01-16T07:48:21;18.90;;;7.80;;
28762;SDS011;15918;51.270;6.522;2024-01-16T07:50:50;17.45;;;7.55;;
28762;SDS011;15918;51.270;6.522;2024-01-16T07:53:15;20.48;;;7.88;;
28762;SDS011;15918;51.270;6.522;2024-01-16T07:55:41;17.15;;;7.97;;
28762;SDS011;15918;51.270;6.522;2024-01-16T07:58:10;17.25;;;8.18;;
28762;SDS011;15918;51.270;6.522;2024-01-16T08:00:36;19.50;;;7.60;;
28762;SDS011;15918;51.270;6.522;2024-01-16T08:03:02;21.83;;;7.93;;
28762;SDS011;15918;51.270;6.522;2024-01-16T08:05:28;16.20;;;6.95;;
28762;SDS011;15918;51.270;6.522;2024-01-16T08:07:55;17.27;;;8.18;;
28762;SDS011;15918;51.270;6.522;2024-01-16T08:10:23;19.30;;;7.65;;
28762;SDS011;15918;51.270;6.522;2024-01-16T08:12:49;20.80;;;7.53;;
28762;SDS011;15918;51.270;6.522;2024-01-16T08:15:15;17.92;;;7.72;;
28762;SDS011;15918;51.270;6.522;2024-01-16T08:17:41;13.38;;;7.47;;
28762;SDS011;15918;51.270;6.522;2024-01-16T08:20:06;17.30;;;9.10;;
28762;SDS011;15918;51.270;6.522;2024-01-16T08:22:35;21.52;;;8.25;;
28762;SDS011;15918;51.270;6.522;2024-01-16T08:25:01;17.48;;;7.90;;
28762;SDS011;15918;51.270;6.522;2024-01-16T08:27:27;14.98;;;7.32;;
28762;SDS011;15918;51.270;6.522;2024-01-16T08:29:54;17.40;;;8.77;;
28762;SDS011;15918;51.270;6.522;2024-01-16T08:32:19;18.45;;;8.20;;
28762;SDS011;15918;51.270;6.522;2024-01-16T08:34:45;20.35;;;8.38;;
28762;SDS011;15918;51.270;6.522;2024-01-16T08:37:10;20.02;;;9.45;;
28762;SDS011;15918;51.270;6.522;2024-01-16T08:39:36;17.88;;;9.77;;
28762;SDS011;15918;51.270;6.522;2024-01-16T08:42:02;20.13;;;10.02;;
28762;SDS011;15918;51.270;6.522;2024-01-16T08:44:28;23.83;;;10.77;;
28762;SDS011;15918;51.270;6.522;2024-01-16T08:46:54;21.20;;;10.75;;
28762;SDS011;15918;51.270;6.522;2024-01-16T08:49:19;16.98;;;9.20;;
28762;SDS011;15918;51.270;6.522;2024-01-16T08:51:45;16.35;;;8.60;;
28762;SDS011;15918;51.270;6.522;2024-01-16T08:54:10;24.23;;;9.35;;
28762;SDS011;15918;51.270;6.522;2024-01-16T08:56:36;18.95;;;8.38;;
28762;SDS011;15918;51.270;6.522;2024-01-16T08:59:02;22.40;;;9.63;;
28762;SDS011;15918;51.270;6.522;2024-01-16T09:01:28;14.93;;;8.27;;
28762;SDS011;15918;51.270;6.522;2024-01-16T09:03:53;17.20;;;8.57;;
28762;SDS011;15918;51.270;6.522;2024-01-16T09:06:19;14.15;;;8.50;;
28762;SDS011;15918;51.270;6.522;2024-01-16T09:08:44;18.42;;;8.65;;
28762;SDS011;15918;51.270;6.522;2024-01-16T09:11:10;18.83;;;8.68;;
28762;SDS011;15918;51.270;6.522;2024-01-16T09:13:36;21.50;;;9.07;;
28762;SDS011;15918;51.270;6.522;2024-01-16T09:16:02;18.35;;;7.97;;
28762;SDS011;15918;51.270;6.522;2024-01-16T09:18:28;17.45;;;8.85;;
28762;SDS011;15918;51.270;6.522;2024-01-16T09:20:54;15.80;;;8.50;;
28762;SDS011;15918;51.270;6.522;2024-01-16T09:23:20;17.45;;;8.45;;
28762;SDS011;15918;51.270;6.522;2024-01-16T09:25:45;18.23;;;8.93;;
28762;SDS011;15918;51.270;6.522;2024-01-16T09:28:12;14.25;;;8.30;;
28762;SDS011;15918;51.270;6.522;2024-01-16T09:30:38;17.30;;;8.23;;
28762;SDS011;15918;51.270;6.522;2024-01-16T09:33:03;19.30;;;9.02;;
28762;SDS011;15918;51.270;6.522;2024-01-16T09:35:32;17.13;;;9.25;;
28762;SDS011;15918;51.270;6.522;2024-01-16T09:37:57;16.13;;;9.32;;
28762;SDS011;15918;51.270;6.522;2024-01-16T09:40:24;20.23;;;9.38;;
28762;SDS011;15918;51.270;6.522;2024-01-16T09:42:51;18.30;;;9.02;;
28762;SDS011;15918;51.270;6.522;2024-01-16T09:45:19;20.30;;;10.68;;
28762;SDS011;15918;51.270;6.522;2024-01-16T09:47:46;24.38;;;12.30;;
28762;SDS011;15918;51.270;6.522;2024-01-16T09:50:14;25.80;;;10.60;;
28762;SDS011;15918;51.270;6.522;2024-01-16T09:52:42;13.88;;;8.73;;
28762;SDS011;15918;51.270;6.522;2024-01-16T09:55:10;18.60;;;9.02;;
28762;SDS011;15918;51.270;6.522;2024-01-16T09:57:35;17.50;;;8.55;;
28762;SDS011;15918;51.270;6.522;2024-01-16T10:00:06;16.85;;;8.77;;
28762;SDS011;15918;51.270;6.522;2024-01-16T10:02:41;17.15;;;8.73;;
28762;SDS011;15918;51.270;6.522;2024-01-16T10:05:10;15.30;;;8.45;;
28762;SDS011;15918;51.270;6.522;2024-01-16T10:07:37;15.93;;;8.73;;
28762;SDS011;15918;51.270;6.522;2024-01-16T10:10:04;16.00;;;9.15;;
28762;SDS011;15918;51.270;6.522;2024-01-16T10:12:31;19.23;;;9.13;;
28762;SDS011;15918;51.270;6.522;2024-01-16T10:14:57;15.73;;;8.07;;
28762;SDS011;15918;51.270;6.522;2024-01-16T10:17:40;17.23;;;8.45;;
28762;SDS011;15918;51.270;6.522;2024-01-16T10:20:07;17.27;;;8.68;;
28762;SDS011;15918;51.270;6.522;2024-01-16T10:22:38;18.63;;;8.05;;
28762;SDS011;15918;51.270;6.522;2024-01-16T10:25:08;15.40;;;9.00;;
28762;SDS011;15918;51.270;6.522;2024-01-16T10:27:41;21.05;;;8.88;;
28762;SDS011;15918;51.270;6.522;2024-01-16T10:30:08;18.80;;;9.60;;
28762;SDS011;15918;51.270;6.522;2024-01-16T10:32:36;17.65;;;9.40;;
28762;SDS011;15918;51.270;6.522;2024-01-16T10:35:09;15.48;;;8.93;;
28762;SDS011;15918;51.270;6.522;2024-01-16T10:37:52;16.15;;;8.25;;
28762;SDS011;15918;51.270;6.522;2024-01-16T10:40:19;17.67;;;8.85;;
28762;SDS011;15918;51.270;6.522;2024-01-16T10:42:46;15.27;;;8.43;;
28762;SDS011;15918;51.270;6.522;2024-01-16T10:45:21;16.83;;;8.75;;
28762;SDS011;15918;51.270;6.522;2024-01-16T10:47:47;18.65;;;9.02;;
28762;SDS011;15918;51.270;6.522;2024-01-16T10:50:14;21.35;;;8.95;;
28762;SDS011;15918;51.270;6.522;2024-01-16T10:52:44;20.00;;;9.02;;
28762;SDS011;15918;51.270;6.522;2024-01-16T10:55:24;22.10;;;9.48;;
28762;SDS011;15918;51.270;6.522;2024-01-16T10:57:53;16.10;;;9.52;;
28762;SDS011;15918;51.270;6.522;2024-01-16T11:00:20;22.40;;;12.00;;
28762;SDS011;15918;51.270;6.522;2024-01-16T11:05:32;18.33;;;11.05;;
28762;SDS011;15918;51.270;6.522;2024-01-16T11:07:59;19.15;;;10.38;;
28762;SDS011;15918;51.270;6.522;2024-01-16T11:10:31;16.27;;;9.52;;
28762;SDS011;15918;51.270;6.522;2024-01-16T11:13:01;18.15;;;9.20;;
28762;SDS011;15918;51.270;6.522;2024-01-16T11:15:28;17.92;;;9.85;;
28762;SDS011;15918;51.270;6.522;2024-01-16T11:17:57;13.10;;;8.70;;
28762;SDS011;15918;51.270;6.522;2024-01-16T11:20:24;16.08;;;9.05;;
28762;SDS011;15918;51.270;6.522;2024-01-16T11:22:50;15.48;;;8.70;;
28762;SDS011;15918;51.270;6.522;2024-01-16T11:25:24;17.80;;;8.85;;
28762;SDS011;15918;51.270;6.522;2024-01-16T11:28:07;17.85;;;8.48;;
28762;SDS011;15918;51.270;6.522;2024-01-16T11:30:39;14.90;;;8.38;;
28762;SDS011;15918;51.270;6.522;2024-01-16T11:33:05;18.40;;;9.40;;
28762;SDS011;15918;51.270;6.522;2024-01-16T11:35:35;15.05;;;8.55;;
28762;SDS011;15918;51.270;6.522;2024-01-16T11:38:11;19.70;;;8.63;;
28762;SDS011;15918;51.270;6.522;2024-01-16T11:40:41;19.65;;;9.40;;
28762;SDS011;15918;51.270;6.522;2024-01-16T11:46:01;17.13;;;8.77;;
28762;SDS011;15918;51.270;6.522;2024-01-16T11:48:27;19.05;;;8.52;;
28762;SDS011;15918;51.270;6.522;2024-01-16T11:50:53;18.30;;;9.10;;
28762;SDS011;15918;51.270;6.522;2024-01-16T12:01:43;16.13;;;8.93;;
28762;SDS011;15918;51.270;6.522;2024-01-16T12:04:10;19.80;;;8.95;;
28762;SDS011;15918;51.270;6.522;2024-01-16T12:06:36;13.52;;;8.50;;
28762;SDS011;15918;51.270;6.522;2024-01-16T12:09:12;18.17;;;9.05;;
28762;SDS011;15918;51.270;6.522;2024-01-16T12:14:04;17.20;;;8.05;;
28762;SDS011;15918;51.270;6.522;2024-01-16T12:16:30;17.02;;;8.77;;
28762;SDS011;15918;51.270;6.522;2024-01-16T12:19:08;14.38;;;8.85;;
28762;SDS011;15918;51.270;6.522;2024-01-16T12:21:44;14.57;;;8.90;;
28762;SDS011;15918;51.270;6.522;2024-01-16T12:26:36;24.83;;;9.38;;
28762;SDS011;15918;51.270;6.522;2024-01-16T12:29:03;17.60;;;9.07;;
28762;SDS011;15918;51.270;6.522;2024-01-16T12:31:28;18.20;;;10.60;;
28762;SDS011;15918;51.270;6.522;2024-01-16T12:34:10;15.70;;;10.82;;
28762;SDS011;15918;51.270;6.522;2024-01-16T12:36:35;16.83;;;10.13;;
28762;SDS011;15918;51.270;6.522;2024-01-16T12:39:02;18.58;;;10.57;;
28762;SDS011;15918;51.270;6.522;2024-01-16T12:41:30;15.60;;;8.82;;
28762;SDS011;15918;51.270;6.522;2024-01-16T12:44:08;19.10;;;9.77;;
28762;SDS011;15918;51.270;6.522;2024-01-16T12:46:34;18.02;;;10.85;;
28762;SDS011;15918;51.270;6.522;2024-01-16T12:49:01;18.13;;;9.98;;
28762;SDS011;15918;51.270;6.522;2024-01-16T12:51:27;17.92;;;9.30;;
28762;SDS011;15918;51.270;6.522;2024-01-16T12:53:53;16.08;;;8.85;;
28762;SDS011;15918;51.270;6.522;2024-01-16T12:56:19;14.18;;;8.40;;
28762;SDS011;15918;51.270;6.522;2024-01-16T12:58:48;16.70;;;8.00;;
28762;SDS011;15918;51.270;6.522;2024-01-16T13:01:47;17.38;;;9.18;;
28762;SDS011;15918;51.270;6.522;2024-01-16T13:04:07;15.80;;;8.85;;
28762;SDS011;15918;51.270;6.522;2024-01-16T13:06:33;14.93;;;8.05;;
28762;SDS011;15918;51.270;6.522;2024-01-16T13:09:09;13.25;;;7.90;;
28762;SDS011;15918;51.270;6.522;2024-01-16T13:11:47;15.23;;;7.63;;
28762;SDS011;15918;51.270;6.522;2024-01-16T13:14:14;18.35;;;10.18;;
28762;SDS011;15918;51.270;6.522;2024-01-16T13:16:40;17.75;;;9.35;;
28762;SDS011;15918;51.270;6.522;2024-01-16T13:19:05;17.77;;;8.85;;
28762;SDS011;15918;51.270;6.522;2024-01-16T13:21:34;16.67;;;8.75;;
28762;SDS011;15918;51.270;6.522;2024-01-16T13:24:02;20.40;;;9.18;;
28762;SDS011;15918;51.270;6.522;2024-01-16T13:26:28;18.00;;;8.40;;
28762;SDS011;15918;51.270;6.522;2024-01-16T13:28:54;16.17;;;8.00;;
28762;SDS011;15918;51.270;6.522;2024-01-16T13:31:20;12.35;;;7.70;;
28762;SDS011;15918;51.270;6.522;2024-01-16T13:33:45;14.60;;;7.65;;
28762;SDS011;15918;51.270;6.522;2024-01-16T13:36:11;13.35;;;7.72;;
28762;SDS011;15918;51.270;6.522;2024-01-16T13:38:36;12.38;;;7.75;;
28762;SDS011;15918;51.270;6.522;2024-01-16T13:41:02;12.48;;;7.45;;
28762;SDS011;15918;51.270;6.522;2024-01-16T13:43:28;13.48;;;7.72;;
28762;SDS011;15918;51.270;6.522;2024-01-16T13:45:54;17.15;;;7.65;;
28762;SDS011;15918;51.270;6.522;2024-01-16T13:48:20;14.70;;;8.10;;
28762;SDS011;15918;51.270;6.522;2024-01-16T13:50:46;19.23;;;8.32;;
28762;SDS011;15918;51.270;6.522;2024-01-16T13:53:12;14.65;;;7.38;;
28762;SDS011;15918;51.270;6.522;2024-01-16T13:55:40;12.77;;;7.43;;
28762;SDS011;15918;51.270;6.522;2024-01-16T13:58:06;14.45;;;7.55;;
28762;SDS011;15918;51.270;6.522;2024-01-16T14:00:32;16.95;;;8.27;;
28762;SDS011;15918;51.270;6.522;2024-01-16T14:02:58;16.17;;;7.80;;
28762;SDS011;15918;51.270;6.522;2024-01-16T14:05:24;10.35;;;6.80;;
28762;SDS011;15918;51.270;6.522;2024-01-16T14:07:51;13.63;;;7.28;;
28762;SDS011;15918;51.270;6.522;2024-01-16T14:10:17;14.25;;;7.68;;
28762;SDS011;15918;51.270;6.522;2024-01-16T14:12:44;14.55;;;8.15;;
28762;SDS011;15918;51.270;6.522;2024-01-16T14:15:11;14.75;;;8.52;;
28762;SDS011;15918;51.270;6.522;2024-01-16T14:17:45;13.30;;;7.97;;
28762;SDS011;15918;51.270;6.522;2024-01-16T14:20:15;14.65;;;8.25;;
28762;SDS011;15918;51.270;6.522;2024-01-16T14:22:42;14.40;;;7.45;;
28762;SDS011;15918;51.270;6.522;2024-01-16T14:25:08;22.10;;;9.40;;
28762;SDS011;15918;51.270;6.522;2024-01-16T14:27:42;13.43;;;7.72;;
28762;SDS011;15918;51.270;6.522;2024-01-16T14:30:10;16.10;;;8.30;;
28762;SDS011;15918;51.270;6.522;2024-01-16T14:32:38;16.15;;;8.60;;
28762;SDS011;15918;51.270;6.522;2024-01-16T14:35:05;12.38;;;6.72;;
28762;SDS011;15918;51.270;6.522;2024-01-16T14:37:32;11.40;;;7.65;;
28762;SDS011;15918;51.270;6.522;2024-01-16T14:40:02;16.52;;;7.90;;
28762;SDS011;15918;51.270;6.522;2024-01-16T14:42:38;16.30;;;7.57;;
28762;SDS011;15918;51.270;6.522;2024-01-16T14:45:07;13.02;;;7.60;;